createdAt,value
2022-08-04T00:02:06.758Z,25.16
2022-08-04T00:07:10.994Z,25.08
2022-08-04T00:12:04.075Z,25.04
2022-08-04T00:16:55.198Z,24.95
2022-08-04T00:21:49.155Z,24.91
2022-08-04T00:26:42.034Z,24.90
2022-08-04T00:31:54.304Z,24.83
2022-08-04T00:36:43.449Z,24.81
2022-08-04T00:41:56.809Z,24.82
2022-08-04T00:47:04.436Z,24.82
2022-08-04T00:52:31.830Z,24.81
2022-08-04T00:57:38.896Z,24.84
2022-08-04T01:02:38.358Z,24.74
2022-08-04T01:07:46.712Z,24.67
2022-08-04T01:13:02.136Z,24.74
2022-08-04T01:18:06.650Z,24.70
2022-08-04T01:23:31.715Z,24.76
2022-08-04T01:28:33.060Z,24.75
2022-08-04T01:33:29.815Z,24.71
2022-08-04T01:38:22.332Z,24.69
2022-08-04T01:43:13.015Z,24.66
2022-08-04T01:48:05.696Z,24.66
2022-08-04T01:52:58.720Z,24.68
2022-08-04T01:57:50.061Z,24.60
2022-08-04T02:02:39.796Z,24.63
2022-08-04T02:07:43.164Z,24.59
2022-08-04T02:12:46.451Z,24.53
2022-08-04T02:17:47.301Z,24.51
2022-08-04T02:22:41.425Z,24.45
2022-08-04T02:27:59.746Z,24.43
2022-08-04T02:32:54.239Z,24.29
2022-08-04T02:42:53.858Z,24.16
2022-08-04T02:48:23.687Z,24.17
2022-08-04T02:52:55.568Z,24.13
2022-08-04T02:57:50.793Z,24.04
2022-08-04T03:02:57.128Z,24.08
2022-08-04T03:08:10.825Z,24.11
2022-08-04T03:13:29.728Z,24.01
2022-08-04T03:18:52.233Z,23.91
2022-08-04T03:24:09.901Z,23.88
2022-08-04T03:29:36.569Z,23.91
2022-08-04T03:34:46.668Z,23.85
2022-08-04T03:40:10.597Z,23.86
2022-08-04T03:45:31.496Z,23.79
2022-08-04T03:51:09.350Z,23.89
2022-08-04T03:56:43.405Z,23.88
2022-08-04T04:02:06.856Z,23.85
2022-08-04T04:07:24.385Z,23.83
2022-08-04T04:12:51.551Z,23.85
2022-08-04T04:18:02.690Z,23.79
2022-08-04T04:23:08.920Z,23.84
2022-08-04T04:28:44.488Z,23.85
2022-08-04T04:33:46.828Z,23.76
2022-08-04T04:39:03.025Z,23.76
2022-08-04T04:44:17.764Z,23.78
2022-08-04T04:49:17.500Z,23.79
2022-08-04T04:54:20.519Z,23.80
2022-08-04T04:59:15.658Z,23.82
2022-08-04T05:04:32.735Z,23.81
2022-08-04T05:09:38.053Z,23.85
2022-08-04T05:14:41.133Z,23.84
2022-08-04T05:19:47.294Z,23.91
2022-08-04T05:24:44.433Z,23.77
2022-08-04T05:29:41.123Z,23.81
2022-08-04T05:34:34.679Z,23.88
2022-08-04T05:39:33.865Z,23.83
2022-08-04T05:44:28.860Z,23.72
2022-08-04T05:49:22.354Z,23.76
2022-08-04T05:54:14.533Z,23.77
2022-08-04T05:59:07.873Z,23.77
2022-08-04T06:04:06.880Z,23.71
2022-08-04T06:09:02.545Z,23.74
2022-08-04T06:14:00.690Z,23.67
2022-08-04T06:20:00.352Z,23.59
2022-08-04T06:24:14.367Z,23.59
2022-08-04T06:29:11.290Z,23.60
2022-08-04T06:34:11.028Z,23.61
2022-08-04T06:39:03.111Z,23.57
2022-08-04T06:43:57.348Z,23.52
2022-08-04T06:48:49.323Z,23.52
2022-08-04T06:53:39.102Z,23.54
2022-08-04T06:58:33.595Z,23.45
2022-08-04T07:03:26.057Z,23.55
2022-08-04T07:08:17.098Z,23.62
2022-08-04T07:13:07.908Z,23.64
2022-08-04T07:18:03.715Z,23.65
2022-08-04T07:22:57.017Z,23.68
2022-08-04T07:27:47.813Z,23.81
2022-08-04T07:32:41.749Z,23.90
2022-08-04T07:37:39.298Z,23.95
2022-08-04T07:42:32.932Z,24.02
2022-08-04T07:47:25.508Z,24.13
2022-08-04T07:52:15.984Z,24.21
2022-08-04T07:57:06.637Z,24.31
2022-08-04T08:02:02.613Z,24.33
2022-08-04T08:06:53.936Z,24.54
2022-08-04T08:12:36.409Z,24.68
2022-08-04T08:16:54.188Z,24.72
2022-08-04T08:21:59.489Z,24.76
2022-08-04T08:26:50.358Z,24.96
2022-08-04T08:31:56.531Z,25.07
2022-08-04T08:36:56.528Z,25.26
2022-08-04T08:42:18.785Z,25.38
2022-08-04T08:47:22.885Z,25.44
2022-08-04T08:53:01.400Z,25.54
2022-08-04T08:58:05.692Z,25.78
2022-08-04T09:03:25.272Z,26.15
2022-08-04T09:08:32.716Z,26.58
2022-08-04T09:13:27.811Z,26.88
2022-08-04T09:18:24.831Z,26.81
2022-08-04T09:23:31.240Z,26.71
2022-08-04T09:28:52.282Z,26.65
2022-08-04T09:33:47.381Z,26.52
2022-08-04T09:38:52.558Z,26.45
2022-08-04T09:43:59.095Z,26.25
2022-08-04T09:49:07.823Z,26.12
2022-08-04T09:54:09.712Z,26.08
2022-08-04T09:59:26.190Z,26.04
2022-08-04T10:04:20.076Z,25.96
2022-08-04T10:09:35.883Z,25.93
2022-08-04T10:14:40.543Z,25.89
2022-08-04T10:19:31.925Z,25.92
2022-08-04T10:24:35.695Z,25.94
2022-08-04T10:29:30.450Z,26.03
2022-08-04T10:34:24.675Z,26.14
2022-08-04T10:39:43.792Z,26.24
2022-08-04T10:44:43.423Z,26.48
2022-08-04T10:49:38.230Z,26.77
2022-08-04T10:54:32.050Z,26.89
2022-08-04T10:59:29.536Z,27.46
2022-08-04T11:04:29.264Z,27.84
2022-08-04T11:09:20.842Z,28.03
2022-08-04T11:14:14.011Z,28.21
2022-08-04T11:19:13.626Z,28.52
2022-08-04T11:24:11.723Z,28.76
2022-08-04T11:29:08.430Z,28.53
2022-08-04T11:34:06.058Z,28.42
2022-08-04T11:39:03.112Z,28.29
2022-08-04T11:44:02.543Z,28.16
2022-08-04T11:48:55.978Z,28.21
2022-08-04T11:53:46.872Z,28.42
2022-08-04T11:58:36.398Z,28.60
2022-08-04T12:03:37.793Z,28.63
2022-08-04T12:08:39.307Z,28.75
2022-08-04T12:13:35.815Z,28.73
2022-08-04T12:18:32.764Z,28.83
2022-08-04T12:23:27.065Z,28.86
2022-08-04T12:28:23.509Z,28.48
2022-08-04T12:33:18.359Z,28.56
2022-08-04T12:38:14.711Z,28.52
2022-08-04T12:43:11.766Z,28.54
2022-08-04T12:48:03.059Z,28.67
2022-08-04T12:53:04.535Z,28.75
2022-08-04T12:57:58.581Z,28.67
2022-08-04T13:02:50.168Z,28.59
2022-08-04T13:07:43.901Z,28.53
2022-08-04T13:12:35.850Z,28.49
2022-08-04T13:17:29.867Z,28.43
2022-08-04T13:22:28.162Z,28.54
2022-08-04T13:27:20.841Z,28.65
2022-08-04T13:32:11.930Z,28.70
2022-08-04T13:37:04.845Z,28.72
2022-08-04T13:41:59.114Z,28.90
2022-08-04T13:46:52.600Z,29.02
2022-08-04T13:51:58.186Z,29.01
2022-08-04T13:56:53.912Z,28.85
2022-08-04T14:01:47.442Z,28.68
2022-08-04T14:06:38.781Z,28.37
2022-08-04T14:12:06.503Z,28.42
2022-08-04T14:17:19.668Z,28.34
2022-08-04T14:22:10.387Z,28.44
2022-08-04T14:27:05.183Z,28.64
2022-08-04T14:32:06.180Z,28.74
2022-08-04T14:37:16.883Z,28.85
2022-08-04T14:42:09.602Z,28.90
2022-08-04T14:47:00.375Z,28.97
2022-08-04T14:51:57.084Z,29.05
2022-08-04T14:56:58.076Z,28.95
2022-08-04T15:02:00.983Z,28.92
2022-08-04T15:06:51.179Z,28.76
2022-08-04T15:11:43.583Z,28.51
2022-08-04T15:16:36.583Z,28.20
2022-08-04T15:21:44.355Z,27.93
2022-08-04T15:26:36.580Z,27.73
2022-08-04T15:32:07.906Z,27.87
2022-08-04T15:36:56.291Z,27.83
2022-08-04T15:41:56.194Z,27.74
2022-08-04T15:47:13.994Z,27.66
2022-08-04T15:52:22.215Z,27.51
2022-08-04T15:57:13.297Z,27.39
2022-08-04T16:02:32.840Z,27.29
2022-08-04T16:07:56.787Z,27.20
2022-08-04T16:12:57.216Z,27.21
2022-08-04T16:17:47.528Z,27.16
2022-08-04T16:22:43.811Z,27.06
2022-08-04T16:27:41.566Z,26.97
2022-08-04T16:32:43.033Z,26.76
2022-08-04T16:37:35.638Z,26.63
2022-08-04T16:42:35.877Z,26.50
2022-08-04T16:48:10.712Z,26.43
2022-08-04T16:53:00.924Z,26.37
2022-08-04T16:57:54.336Z,26.30
2022-08-04T17:02:46.159Z,26.12
2022-08-04T17:08:26.912Z,25.96
2022-08-04T17:14:00.827Z,25.65
2022-08-04T17:18:18.681Z,25.37
2022-08-04T17:24:14.185Z,25.22
2022-08-04T17:28:47.085Z,25.08
2022-08-04T17:33:54.688Z,24.79
2022-08-04T17:38:45.978Z,24.53
2022-08-04T17:44:05.004Z,24.45
2022-08-04T17:49:05.010Z,24.32
2022-08-04T17:54:03.566Z,24.28
2022-08-04T17:59:12.439Z,24.22
2022-08-04T18:04:25.935Z,24.11
2022-08-04T18:09:22.814Z,23.99
2022-08-04T18:14:28.791Z,23.92
2022-08-04T18:19:22.609Z,23.88
2022-08-04T18:24:12.357Z,23.83
2022-08-04T18:29:04.862Z,23.72
2022-08-04T18:33:57.300Z,23.66
2022-08-04T18:38:58.588Z,23.60
2022-08-04T18:43:56.070Z,23.51
2022-08-04T18:48:52.571Z,23.46
2022-08-04T18:53:55.108Z,23.43
2022-08-04T18:58:51.629Z,23.30
2022-08-04T19:03:44.730Z,23.18
2022-08-04T19:13:54.775Z,23.06
2022-08-04T19:18:51.043Z,22.88
2022-08-04T19:24:30.140Z,22.68
2022-08-04T19:28:50.693Z,22.52
2022-08-04T19:33:59.173Z,22.43
2022-08-04T19:38:54.514Z,22.32
2022-08-04T19:43:44.226Z,22.20
2022-08-04T19:48:34.346Z,22.21
2022-08-04T19:53:37.024Z,22.23
2022-08-04T19:58:32.914Z,22.15
2022-08-04T20:03:22.987Z,22.07
2022-08-04T20:08:36.139Z,22.03
2022-08-04T20:13:37.477Z,21.94
2022-08-04T20:18:35.624Z,21.93
2022-08-04T20:23:28.828Z,21.87
2022-08-04T20:28:37.649Z,21.78
2022-08-04T20:33:28.631Z,21.74
2022-08-04T20:38:33.032Z,21.74
2022-08-04T20:43:23.852Z,21.77
2022-08-04T20:48:13.301Z,21.78
2022-08-04T20:53:16.123Z,21.75
2022-08-04T20:58:08.941Z,21.66
2022-08-04T21:02:59.073Z,21.53
2022-08-04T21:07:49.147Z,21.40
2022-08-04T21:12:38.490Z,21.35
2022-08-04T21:17:59.523Z,21.33
2022-08-04T21:22:40.556Z,21.33
2022-08-04T21:27:30.147Z,21.35
2022-08-04T21:32:27.291Z,21.28
2022-08-04T21:37:21.508Z,21.21
2022-08-04T21:42:28.898Z,21.24
2022-08-04T21:47:23.704Z,21.26
2022-08-04T21:52:13.431Z,21.22
2022-08-04T21:57:09.337Z,21.14
2022-08-04T22:02:00.228Z,21.13
2022-08-04T22:06:52.547Z,21.08
2022-08-04T22:11:48.327Z,21.01
2022-08-04T22:16:41.529Z,21.02
2022-08-04T22:21:31.144Z,21.04
2022-08-04T22:26:29.643Z,21.05
2022-08-04T22:31:24.772Z,21.02
2022-08-04T22:36:18.689Z,20.98
2022-08-04T22:41:09.071Z,20.94
2022-08-04T22:45:58.470Z,20.92
2022-08-04T22:50:48.031Z,20.88
2022-08-04T22:56:06.426Z,20.88
2022-08-04T23:00:52.938Z,20.88
2022-08-04T23:05:44.196Z,20.75
2022-08-04T23:10:43.831Z,20.68
2022-08-04T23:15:34.089Z,20.66
2022-08-04T23:20:32.713Z,20.60
2022-08-04T23:25:33.121Z,20.51
2022-08-04T23:30:41.010Z,20.49
2022-08-04T23:35:34.795Z,20.52
2022-08-04T23:40:32.524Z,20.52
2022-08-04T23:45:54.259Z,20.52
2022-08-04T23:50:35.949Z,20.45
2022-08-04T23:55:32.110Z,20.37
